createdAt,value
2023-02-19T00:00:28.939Z,15.50
2023-02-19T00:03:15.442Z,16.85
2023-02-19T00:06:03.319Z,14.85
2023-02-19T00:08:49.512Z,14.85
2023-02-19T00:11:36.059Z,15.15
2023-02-19T00:14:22.151Z,14.77
2023-02-19T00:17:07.843Z,13.73
2023-02-19T00:19:53.338Z,14.45
2023-02-19T00:22:39.473Z,15.68
2023-02-19T00:25:25.561Z,13.93
2023-02-19T00:28:11.395Z,14.25
2023-02-19T00:31:05.888Z,13.40
2023-02-19T00:33:55.039Z,13.38
2023-02-19T00:36:42.218Z,12.82
2023-02-19T00:39:28.279Z,14.15
2023-02-19T00:42:14.032Z,13.93
2023-02-19T00:44:59.744Z,13.70
2023-02-19T00:47:45.444Z,13.90
2023-02-19T00:50:31.360Z,12.50
2023-02-19T00:53:17.234Z,14.82
2023-02-19T00:56:02.868Z,14.75
2023-02-19T00:58:48.930Z,14.55
2023-02-19T01:01:34.976Z,13.50
2023-02-19T01:04:20.739Z,13.98
2023-02-19T01:07:07.050Z,14.27
2023-02-19T01:09:55.413Z,14.63
2023-02-19T01:12:41.037Z,15.02
2023-02-19T01:15:27.100Z,13.63
2023-02-19T01:18:12.913Z,13.48
2023-02-19T01:20:59.259Z,13.43
2023-02-19T01:23:45.285Z,12.75
2023-02-19T01:26:32.271Z,13.02
2023-02-19T01:29:18.349Z,12.95
2023-02-19T01:32:04.308Z,14.23
2023-02-19T01:34:50.705Z,15.38
2023-02-19T01:37:37.314Z,20.00
2023-02-19T01:40:23.486Z,17.63
2023-02-19T01:43:16.209Z,16.02
2023-02-19T01:46:02.090Z,13.93
2023-02-19T01:48:47.825Z,13.55
2023-02-19T01:51:34.484Z,12.85
2023-02-19T01:54:22.628Z,13.68
2023-02-19T01:57:13.756Z,13.38
2023-02-19T02:00:05.019Z,14.27
2023-02-19T02:02:58.809Z,13.07
2023-02-19T02:05:50.593Z,13.18
2023-02-19T02:08:55.861Z,13.40
2023-02-19T02:11:49.219Z,13.57
2023-02-19T02:14:38.162Z,13.70
2023-02-19T02:17:32.138Z,13.35
2023-02-19T02:20:55.249Z,13.00
2023-02-19T02:23:53.329Z,12.50
2023-02-19T02:27:01.255Z,11.30
2023-02-19T02:30:06.549Z,11.52
2023-02-19T02:33:19.787Z,12.75
2023-02-19T02:36:09.429Z,12.65
2023-02-19T02:38:58.397Z,11.75
2023-02-19T02:41:49.057Z,13.20
2023-02-19T02:44:42.164Z,12.95
2023-02-19T02:47:45.018Z,12.90
2023-02-19T02:50:37.040Z,12.43
2023-02-19T02:54:00.406Z,12.18
2023-02-19T02:56:48.363Z,11.50
2023-02-19T02:59:37.707Z,12.88
2023-02-19T03:02:26.796Z,12.80
2023-02-19T03:05:36.613Z,12.68
2023-02-19T03:08:25.430Z,13.02
2023-02-19T03:11:30.417Z,12.85
2023-02-19T03:14:40.651Z,12.82
2023-02-19T03:18:15.969Z,13.38
2023-02-19T03:21:04.415Z,13.13
2023-02-19T03:24:09.637Z,13.40
2023-02-19T03:26:57.514Z,11.77
2023-02-19T03:29:45.052Z,11.60
2023-02-19T03:32:38.724Z,12.63
2023-02-19T03:35:33.730Z,12.52
2023-02-19T03:41:21.563Z,12.02
2023-02-19T03:44:41.134Z,11.60
2023-02-19T03:47:34.318Z,11.95
2023-02-19T03:50:23.636Z,12.35
2023-02-19T03:53:35.117Z,12.07
2023-02-19T03:56:47.257Z,11.73
2023-02-19T03:59:43.974Z,11.10
2023-02-19T04:02:42.162Z,12.55
2023-02-19T04:05:30.909Z,12.38
2023-02-19T04:08:19.438Z,13.52
2023-02-19T04:11:12.194Z,12.00
2023-02-19T04:14:13.266Z,11.32
2023-02-19T04:17:03.298Z,12.35
2023-02-19T04:19:50.528Z,12.70
2023-02-19T04:22:37.261Z,11.85
2023-02-19T04:25:23.811Z,12.23
2023-02-19T04:28:10.101Z,11.70
2023-02-19T04:30:56.095Z,11.68
2023-02-19T04:33:41.851Z,11.75
2023-02-19T04:36:27.397Z,12.13
2023-02-19T04:39:13.111Z,13.23
2023-02-19T04:41:58.780Z,11.35
2023-02-19T04:44:44.519Z,11.52
2023-02-19T04:47:32.185Z,11.77
2023-02-19T04:50:18.243Z,11.68
2023-02-19T04:53:04.105Z,12.32
2023-02-19T04:55:53.223Z,11.57
2023-02-19T04:58:39.689Z,12.02
2023-02-19T05:01:25.660Z,10.75
2023-02-19T05:04:11.571Z,11.60
2023-02-19T05:06:57.399Z,12.20
2023-02-19T05:09:42.957Z,11.95
2023-02-19T05:12:31.117Z,12.70
2023-02-19T05:15:17.010Z,12.18
2023-02-19T05:18:03.185Z,12.98
2023-02-19T05:20:50.712Z,13.05
2023-02-19T05:23:36.941Z,12.57
2023-02-19T05:26:24.237Z,13.10
2023-02-19T05:29:10.324Z,15.15
2023-02-19T05:31:57.203Z,14.85
2023-02-19T05:34:42.904Z,12.90
2023-02-19T05:37:28.971Z,13.32
2023-02-19T05:40:14.840Z,13.18
2023-02-19T05:43:00.446Z,14.20
2023-02-19T05:45:46.086Z,12.57
2023-02-19T05:48:32.573Z,14.23
2023-02-19T05:51:21.716Z,15.43
2023-02-19T05:54:07.838Z,13.90
2023-02-19T05:56:53.737Z,15.00
2023-02-19T05:59:39.723Z,13.75
2023-02-19T06:02:25.412Z,14.60
2023-02-19T06:05:11.514Z,14.43
2023-02-19T06:07:57.329Z,14.32
2023-02-19T06:10:43.685Z,14.13
2023-02-19T06:13:29.700Z,13.63
2023-02-19T06:16:17.607Z,13.20
2023-02-19T06:19:04.164Z,13.07
2023-02-19T06:21:50.834Z,13.35
2023-02-19T06:24:37.852Z,14.52
2023-02-19T06:27:24.026Z,13.18
2023-02-19T06:30:10.773Z,13.57
2023-02-19T06:32:57.913Z,13.48
2023-02-19T06:35:43.611Z,12.93
2023-02-19T06:38:29.438Z,14.32
2023-02-19T06:41:15.793Z,13.93
2023-02-19T06:44:02.034Z,13.60
2023-02-19T06:46:48.126Z,14.55
2023-02-19T06:49:33.710Z,17.35
2023-02-19T06:52:19.655Z,16.63
2023-02-19T06:55:09.097Z,17.77
2023-02-19T06:57:54.846Z,16.17
2023-02-19T07:00:40.368Z,17.05
2023-02-19T07:03:29.590Z,16.30
2023-02-19T07:06:15.600Z,16.27
2023-02-19T07:09:01.924Z,16.63
2023-02-19T07:11:48.015Z,18.20
2023-02-19T07:14:33.788Z,17.83
2023-02-19T07:17:19.794Z,19.02
2023-02-19T07:20:05.795Z,21.73
2023-02-19T07:22:51.467Z,22.05
2023-02-19T07:25:38.153Z,22.50
2023-02-19T07:28:24.169Z,24.15
2023-02-19T07:31:10.626Z,24.00
2023-02-19T07:33:56.691Z,22.63
2023-02-19T07:36:42.511Z,21.58
2023-02-19T07:39:28.419Z,24.23
2023-02-19T07:42:14.253Z,23.30
2023-02-19T07:45:00.726Z,21.15
2023-02-19T07:47:46.672Z,21.88
2023-02-19T07:50:32.469Z,21.27
2023-02-19T07:53:18.836Z,22.35
2023-02-19T07:56:06.808Z,21.92
2023-02-19T07:58:52.989Z,21.48
2023-02-19T08:01:57.503Z,20.33
2023-02-19T08:04:43.585Z,19.60
2023-02-19T08:07:39.557Z,20.75
2023-02-19T08:10:44.373Z,20.15
2023-02-19T08:13:30.929Z,18.85
2023-02-19T08:16:29.658Z,18.48
2023-02-19T08:19:23.351Z,15.88
2023-02-19T08:22:09.373Z,15.07
2023-02-19T08:24:55.073Z,14.57
2023-02-19T08:27:40.930Z,13.45
2023-02-19T08:30:31.351Z,14.25
2023-02-19T08:33:19.707Z,12.88
2023-02-19T08:36:07.052Z,13.32
2023-02-19T08:38:52.945Z,14.27
2023-02-19T08:41:38.715Z,14.73
2023-02-19T08:44:26.360Z,13.95
2023-02-19T08:47:12.459Z,15.15
2023-02-19T08:49:58.197Z,15.07
2023-02-19T08:52:43.989Z,13.13
2023-02-19T08:55:30.167Z,13.20
2023-02-19T08:58:16.059Z,11.82
2023-02-19T09:01:01.896Z,11.27
2023-02-19T09:03:47.866Z,11.93
2023-02-19T09:06:33.888Z,11.40
2023-02-19T09:09:19.958Z,11.38
2023-02-19T09:12:07.476Z,11.65
2023-02-19T09:14:53.075Z,15.68
2023-02-19T09:17:38.951Z,11.30
2023-02-19T09:20:25.427Z,13.43
2023-02-19T09:23:11.568Z,12.65
2023-02-19T09:26:00.221Z,13.57
2023-02-19T09:28:46.009Z,11.63
2023-02-19T09:31:32.667Z,10.73
2023-02-19T09:34:18.307Z,8.70
2023-02-19T09:37:03.982Z,9.43
2023-02-19T09:39:49.561Z,9.88
2023-02-19T09:42:35.667Z,10.10
2023-02-19T09:45:26.356Z,10.35
2023-02-19T09:48:12.608Z,14.27
2023-02-19T09:50:59.649Z,10.95
2023-02-19T09:53:48.166Z,24.60
2023-02-19T09:56:34.723Z,11.20
2023-02-19T09:59:42.470Z,10.75
2023-02-19T10:02:30.855Z,15.70
2023-02-19T10:05:17.211Z,10.63
2023-02-19T10:08:05.632Z,9.13
2023-02-19T10:10:53.544Z,9.70
2023-02-19T10:13:53.786Z,8.52
2023-02-19T10:16:40.984Z,7.72
2023-02-19T10:19:27.175Z,7.63
2023-02-19T10:22:13.607Z,8.38
2023-02-19T10:24:59.698Z,8.52
2023-02-19T10:27:46.506Z,10.60
2023-02-19T10:30:34.229Z,10.70
2023-02-19T10:33:22.009Z,11.15
2023-02-19T10:36:21.287Z,10.88
2023-02-19T10:39:22.548Z,11.70
2023-02-19T10:42:15.963Z,11.23
2023-02-19T10:45:02.910Z,9.43
2023-02-19T10:47:49.586Z,13.95
2023-02-19T10:50:47.140Z,11.52
2023-02-19T10:53:42.669Z,11.45
2023-02-19T10:56:31.424Z,8.77
2023-02-19T10:59:28.378Z,10.50
2023-02-19T11:02:19.055Z,9.65
2023-02-19T11:05:16.774Z,9.80
2023-02-19T11:08:02.550Z,10.48
2023-02-19T11:10:48.583Z,8.15
2023-02-19T11:13:38.062Z,9.25
2023-02-19T11:16:25.186Z,8.75
2023-02-19T11:19:26.486Z,7.72
2023-02-19T11:22:32.869Z,7.30
2023-02-19T11:25:21.714Z,8.35
2023-02-19T11:28:20.667Z,8.43
2023-02-19T11:31:19.367Z,12.30
2023-02-19T11:34:14.429Z,8.60
2023-02-19T11:37:12.223Z,8.57
2023-02-19T11:39:58.075Z,7.20
2023-02-19T11:43:07.785Z,8.48
2023-02-19T11:46:17.239Z,8.30
2023-02-19T11:49:24.656Z,8.75
2023-02-19T11:52:29.516Z,8.40
2023-02-19T11:55:36.260Z,8.40
2023-02-19T11:59:00.897Z,9.05
2023-02-19T12:01:53.339Z,10.65
2023-02-19T12:05:19.062Z,10.35
2023-02-19T12:08:26.088Z,12.95
2023-02-19T12:11:38.240Z,12.70
2023-02-19T12:14:46.877Z,12.30
2023-02-19T12:17:54.023Z,12.35
2023-02-19T12:21:13.624Z,9.98
2023-02-19T12:24:09.479Z,11.30
2023-02-19T12:27:33.947Z,8.65
2023-02-19T12:30:51.576Z,8.48
2023-02-19T12:33:40.610Z,8.80
2023-02-19T12:37:00.221Z,8.70
2023-02-19T12:39:52.358Z,8.35
2023-02-19T12:42:56.953Z,7.40
2023-02-19T12:45:45.548Z,7.57
2023-02-19T12:49:00.200Z,6.63
2023-02-19T12:51:55.283Z,7.43
2023-02-19T12:54:44.282Z,8.68
2023-02-19T12:57:35.134Z,15.98
2023-02-19T13:00:41.098Z,12.45
2023-02-19T13:03:49.420Z,10.48
2023-02-19T13:06:50.793Z,9.15
2023-02-19T13:09:47.075Z,9.80
2023-02-19T13:12:41.632Z,9.75
2023-02-19T13:15:35.621Z,8.88
2023-02-19T13:18:25.891Z,8.63
2023-02-19T13:21:13.542Z,7.88
2023-02-19T13:24:12.150Z,7.45
2023-02-19T13:27:42.255Z,8.85
2023-02-19T13:30:43.235Z,10.23
2023-02-19T13:33:54.780Z,9.05
2023-02-19T13:36:41.879Z,13.43
2023-02-19T13:39:29.257Z,15.05
2023-02-19T13:42:41.617Z,15.15
2023-02-19T13:45:41.140Z,12.50
2023-02-19T13:48:32.981Z,17.00
2023-02-19T13:51:29.716Z,11.40
2023-02-19T13:54:22.777Z,9.20
2023-02-19T13:57:24.073Z,7.70
2023-02-19T14:00:49.298Z,9.80
2023-02-19T14:03:55.553Z,12.52
2023-02-19T14:07:07.646Z,9.93
2023-02-19T14:09:55.241Z,14.48
2023-02-19T14:12:41.231Z,13.02
2023-02-19T14:15:53.395Z,13.85
2023-02-19T14:18:45.699Z,9.85
2023-02-19T14:21:36.800Z,12.25
2023-02-19T14:24:23.591Z,13.63
2023-02-19T14:27:09.532Z,11.32
2023-02-19T14:29:55.783Z,15.73
2023-02-19T14:32:43.630Z,13.70
2023-02-19T14:36:14.506Z,10.45
2023-02-19T14:39:11.567Z,13.05
2023-02-19T14:42:00.271Z,9.88
2023-02-19T14:44:52.924Z,10.20
2023-02-19T14:47:38.709Z,10.80
2023-02-19T14:50:36.534Z,14.77
2023-02-19T14:53:23.605Z,11.55
2023-02-19T14:56:25.136Z,13.00
2023-02-19T14:59:13.848Z,11.63
2023-02-19T15:02:02.189Z,15.02
2023-02-19T15:04:48.477Z,13.93
2023-02-19T15:07:34.413Z,15.18
2023-02-19T15:10:20.608Z,16.30
2023-02-19T15:13:08.450Z,17.08
2023-02-19T15:15:55.492Z,13.75
2023-02-19T15:18:46.347Z,16.58
2023-02-19T15:21:32.947Z,16.42
2023-02-19T15:24:19.350Z,17.05
2023-02-19T15:27:05.399Z,38.58
2023-02-19T15:29:53.685Z,19.55
2023-02-19T15:32:40.985Z,18.10
2023-02-19T15:35:28.095Z,12.15
2023-02-19T15:38:13.775Z,19.13
2023-02-19T15:40:59.843Z,14.57
2023-02-19T15:44:09.839Z,35.90
2023-02-19T15:46:56.329Z,20.27
2023-02-19T15:49:51.772Z,15.38
2023-02-19T15:52:48.549Z,15.00
2023-02-19T15:55:46.785Z,13.30
2023-02-19T15:58:47.447Z,24.15
2023-02-19T16:01:36.618Z,20.08
2023-02-19T16:04:22.578Z,18.83
2023-02-19T16:07:23.595Z,20.20
2023-02-19T16:10:22.880Z,16.52
2023-02-19T16:13:11.988Z,23.58
2023-02-19T16:16:17.105Z,16.60
2023-02-19T16:19:02.932Z,18.70
2023-02-19T16:21:48.660Z,22.90
2023-02-19T16:24:46.877Z,26.55
2023-02-19T16:27:39.244Z,28.35
2023-02-19T16:30:31.594Z,17.50
2023-02-19T16:33:36.429Z,26.35
2023-02-19T16:36:36.095Z,23.80
2023-02-19T16:39:23.406Z,22.73
2023-02-19T16:42:12.612Z,19.52
2023-02-19T16:44:58.206Z,15.65
2023-02-19T16:47:51.354Z,15.80
2023-02-19T16:50:41.407Z,12.57
2023-02-19T16:53:28.912Z,13.18
2023-02-19T16:56:18.596Z,13.85
2023-02-19T16:59:05.234Z,15.88
2023-02-19T17:01:50.793Z,15.70
2023-02-19T17:04:36.552Z,15.45
2023-02-19T17:07:22.832Z,13.32
2023-02-19T17:10:11.410Z,12.15
2023-02-19T17:12:57.212Z,11.40
2023-02-19T17:15:43.177Z,12.05
2023-02-19T17:18:30.077Z,14.15
2023-02-19T17:21:21.852Z,15.25
2023-02-19T17:24:07.993Z,18.58
2023-02-19T17:26:53.976Z,17.65
2023-02-19T17:29:40.814Z,17.83
2023-02-19T17:32:26.910Z,20.13
2023-02-19T17:35:13.441Z,19.08
2023-02-19T17:37:59.783Z,22.45
2023-02-19T17:40:45.837Z,23.90
2023-02-19T17:43:31.856Z,23.98
2023-02-19T17:46:19.289Z,26.38
2023-02-19T17:49:05.410Z,27.77
2023-02-19T17:51:51.297Z,25.00
2023-02-19T17:54:37.202Z,25.20
2023-02-19T17:57:22.900Z,24.13
2023-02-19T18:00:09.271Z,24.83
2023-02-19T18:02:59.311Z,22.90
2023-02-19T18:05:45.629Z,24.67
2023-02-19T18:08:31.770Z,27.40
2023-02-19T18:11:18.316Z,28.45
2023-02-19T18:14:03.906Z,27.13
2023-02-19T18:16:50.825Z,25.25
2023-02-19T18:19:37.178Z,22.83
2023-02-19T18:22:24.005Z,22.60
2023-02-19T18:25:10.501Z,21.42
2023-02-19T18:27:56.619Z,25.63
2023-02-19T18:30:42.675Z,24.23
2023-02-19T18:33:28.713Z,24.30
2023-02-19T18:36:14.996Z,46.33
2023-02-19T18:39:01.049Z,44.88
2023-02-19T18:41:49.055Z,36.42
2023-02-19T18:44:35.206Z,33.50
2023-02-19T18:47:22.095Z,47.13
2023-02-19T18:50:09.921Z,47.28
2023-02-19T18:53:00.664Z,62.58
2023-02-19T18:55:46.712Z,65.10
2023-02-19T18:58:32.710Z,78.82
2023-02-19T19:01:21.386Z,63.63
2023-02-19T19:04:07.462Z,62.97
2023-02-19T19:06:53.442Z,62.40
2023-02-19T19:09:39.121Z,56.55
2023-02-19T19:12:24.922Z,54.83
2023-02-19T19:15:10.826Z,57.47
2023-02-19T19:17:56.650Z,47.90
2023-02-19T19:20:42.451Z,46.10
2023-02-19T19:23:28.181Z,48.50
2023-02-19T19:26:14.730Z,43.35
2023-02-19T19:29:00.683Z,43.42
2023-02-19T19:31:46.915Z,44.47
2023-02-19T19:34:32.944Z,42.42
2023-02-19T19:37:18.689Z,39.70
2023-02-19T19:40:04.904Z,46.50
2023-02-19T19:42:52.255Z,42.13
2023-02-19T19:45:38.685Z,28.58
2023-02-19T19:48:27.542Z,26.80
2023-02-19T19:51:13.778Z,28.02
2023-02-19T19:54:01.231Z,39.15
2023-02-19T19:56:47.727Z,28.50
2023-02-19T19:59:33.791Z,85.97
2023-02-19T20:02:19.923Z,56.33
2023-02-19T20:05:06.647Z,42.00
2023-02-19T20:07:54.335Z,27.00
2023-02-19T20:10:43.431Z,20.17
2023-02-19T20:13:31.047Z,16.88
2023-02-19T20:16:16.837Z,18.42
2023-02-19T20:19:02.921Z,17.55
2023-02-19T20:21:51.746Z,15.40
2023-02-19T20:24:38.409Z,15.43
2023-02-19T20:27:24.713Z,16.83
2023-02-19T20:30:15.855Z,18.63
2023-02-19T20:33:02.458Z,19.88
2023-02-19T20:35:48.542Z,30.02
2023-02-19T20:38:35.322Z,27.85
2023-02-19T20:41:21.324Z,26.83
2023-02-19T20:44:09.621Z,23.52
2023-02-19T20:46:58.144Z,24.33
2023-02-19T20:49:46.465Z,30.88
2023-02-19T20:52:32.515Z,34.10
2023-02-19T20:55:19.383Z,30.77
2023-02-19T20:58:05.381Z,26.60
2023-02-19T21:00:53.592Z,25.38
2023-02-19T21:03:39.621Z,22.20
2023-02-19T21:06:26.366Z,23.90
2023-02-19T21:09:12.790Z,22.52
2023-02-19T21:12:00.038Z,23.38
2023-02-19T21:14:49.165Z,25.35
2023-02-19T21:17:35.831Z,23.92
2023-02-19T21:20:21.929Z,22.00
2023-02-19T21:23:08.834Z,22.33
2023-02-19T21:25:56.817Z,19.92
2023-02-19T21:28:43.263Z,21.02
2023-02-19T21:31:59.938Z,21.08
2023-02-19T21:34:45.706Z,19.55
2023-02-19T21:37:41.206Z,20.60
2023-02-19T21:40:29.070Z,21.75
2023-02-19T21:43:15.612Z,22.15
2023-02-19T21:46:01.392Z,23.75
2023-02-19T21:48:51.636Z,29.08
2023-02-19T21:51:41.107Z,32.30
2023-02-19T21:54:26.868Z,27.48
2023-02-19T21:57:12.754Z,28.42
2023-02-19T21:59:58.601Z,28.70
2023-02-19T22:02:44.637Z,24.05
2023-02-19T22:05:30.937Z,21.58
2023-02-19T22:08:17.570Z,19.15
2023-02-19T22:11:04.103Z,19.60
2023-02-19T22:13:50.508Z,20.40
2023-02-19T22:16:36.335Z,20.33
2023-02-19T22:19:22.261Z,20.88
2023-02-19T22:22:08.121Z,22.23
2023-02-19T22:24:53.946Z,19.15
2023-02-19T22:27:40.092Z,18.38
2023-02-19T22:30:26.210Z,17.23
2023-02-19T22:33:11.997Z,20.55
2023-02-19T22:35:57.687Z,21.73
2023-02-19T22:38:43.771Z,23.08
2023-02-19T22:41:30.134Z,23.42
2023-02-19T22:44:16.246Z,20.98
2023-02-19T22:47:02.101Z,20.90
2023-02-19T22:49:48.436Z,19.20
2023-02-19T22:52:36.832Z,21.05
2023-02-19T22:55:22.753Z,20.10
2023-02-19T22:58:08.661Z,17.20
2023-02-19T23:00:55.386Z,19.13
2023-02-19T23:03:52.949Z,20.83
2023-02-19T23:06:42.973Z,20.45
2023-02-19T23:09:30.172Z,16.52
2023-02-19T23:12:16.216Z,17.13
2023-02-19T23:15:02.411Z,17.17
2023-02-19T23:17:48.675Z,16.80
2023-02-19T23:20:35.786Z,15.88
2023-02-19T23:23:21.835Z,16.13
2023-02-19T23:26:07.653Z,16.70
2023-02-19T23:28:53.513Z,16.17
2023-02-19T23:31:39.616Z,15.98
2023-02-19T23:34:29.937Z,15.70
2023-02-19T23:37:19.769Z,16.77
2023-02-19T23:40:05.804Z,17.98
2023-02-19T23:42:52.601Z,17.05
2023-02-19T23:45:38.216Z,16.05
2023-02-19T23:48:24.827Z,14.02
2023-02-19T23:51:10.440Z,15.05
2023-02-19T23:53:56.200Z,15.43
2023-02-19T23:56:41.985Z,14.05
2023-02-19T23:59:27.642Z,16.75
